Terminal Aerodrome Forecast
Issued by NWS Charleston, SC

Home | Current Version | Previous Version | Text Only | Print | Product List | Glossary On
Versions: 1 2 3 4 5 6 7 8 9 10 11 12 13 14
000
FTUS42 KCHS 231400 AAA
TAFCHS
TAF AMD
KCHS 231413Z 2314/2412 07014KT 2SM RA BR OVC009
     FM231600 10015KT 3SM RA BR SCT004 OVC008
     FM231900 18014G24KT P6SM VCSH SCT005 BKN010
     FM240300 19012G20KT 4SM -TSRA BR BKN015CB
     FM240600 20008KT 3SM BR BKN007=

USA.gov is the U.S. government's official web portal to all federal, state and local government web resources and services.